N9GW KDAL-KCOS
Flight info
| Callsign | N9GW |
|---|---|
| Flight time | N/A |
| Altitude | 43000 |
| Route | KKITY5 HUDAD NOSEW LAA OZZZY5 |
| Aircraft | C25C/M-SDE2E3FGHRWXY/LB1 |
Departure
| Time | 2026-05-03 21:34 |
|---|---|
| Airport | Dallas Love Field (KDAL) |
Arrival
| Time | N/A |
|---|---|
| Airport | City of Colorado Springs Municipal Airport (KCOS) |
| Time | Latitude | Longitude | Altitude | Speed | Heading |
|---|---|---|---|---|---|
| 2026-05-03 21:20 | 32.84900 | -96.84438 | 475 ft | 0 kts | 131° |
| 2026-05-03 21:29 | 32.84898 | -96.84436 | 475 ft | 4 kts | 130° |
| 2026-05-03 21:29 | 32.84850 | -96.84370 | 475 ft | 11 kts | 142° |
| 2026-05-03 21:29 | 32.84788 | -96.84375 | 472 ft | 9 kts | 244° |
| 2026-05-03 21:29 | 32.84818 | -96.84442 | 475 ft | 14 kts | 314° |
| 2026-05-03 21:30 | 32.84802 | -96.84537 | 473 ft | 16 kts | 229° |
| 2026-05-03 21:30 | 32.84718 | -96.84646 | 475 ft | 13 kts | 238° |
| 2026-05-03 21:30 | 32.84761 | -96.84738 | 473 ft | 17 kts | 313° |
| 2026-05-03 21:30 | 32.84864 | -96.84861 | 475 ft | 25 kts | 315° |
| 2026-05-03 21:31 | 32.84998 | -96.85019 | 475 ft | 28 kts | 316° |
| 2026-05-03 21:31 | 32.85079 | -96.85127 | 474 ft | 4 kts | 281° |
| 2026-05-03 21:31 | 32.85053 | -96.85150 | 474 ft | 16 kts | 179° |
| 2026-05-03 21:31 | 32.84947 | -96.85212 | 475 ft | 17 kts | 222° |
| 2026-05-03 21:32 | 32.84867 | -96.85302 | 475 ft | 14 kts | 234° |
| 2026-05-03 21:32 | 32.84890 | -96.85410 | 473 ft | 16 kts | 293° |
| 2026-05-03 21:32 | 32.84901 | -96.85560 | 475 ft | 21 kts | 260° |
| 2026-05-03 21:32 | 32.84868 | -96.85740 | 475 ft | 18 kts | 253° |
| 2026-05-03 21:33 | 32.84886 | -96.85871 | 475 ft | 19 kts | 317° |
| 2026-05-03 21:33 | 32.84994 | -96.85997 | 475 ft | 24 kts | 314° |
| 2026-05-03 21:33 | 32.85090 | -96.86134 | 474 ft | 10 kts | 270° |
| 2026-05-03 21:33 | 32.85053 | -96.86199 | 474 ft | 9 kts | 213° |
| 2026-05-03 21:34 | 32.84978 | -96.86155 | 475 ft | 32 kts | 137° |
| 2026-05-03 21:34 | 32.84529 | -96.85676 | 531 ft | 136 kts | 139° |
| 2026-05-03 21:34 | 32.83712 | -96.84753 | 1238 ft | 181 kts | 139° |
| 2026-05-03 21:34 | 32.82738 | -96.83710 | 2264 ft | 199 kts | 142° |
| 2026-05-03 21:35 | 32.81661 | -96.82505 | 3186 ft | 226 kts | 141° |
| 2026-05-03 21:35 | 32.80443 | -96.81173 | 4128 ft | 247 kts | 141° |
| 2026-05-03 21:35 | 32.79198 | -96.79764 | 5466 ft | 248 kts | 141° |
| 2026-05-03 21:35 | 32.77926 | -96.78334 | 6654 ft | 256 kts | 141° |
| 2026-05-03 21:36 | 32.76601 | -96.76893 | 7808 ft | 261 kts | 141° |
| 2026-05-03 21:36 | 32.75243 | -96.75408 | 8927 ft | 269 kts | 141° |
| 2026-05-03 21:36 | 32.73876 | -96.73843 | 10051 ft | 278 kts | 131° |
| 2026-05-03 21:36 | 32.72634 | -96.72060 | 11059 ft | 281 kts | 142° |
| 2026-05-03 21:37 | 32.70876 | -96.71077 | 12080 ft | 282 kts | 166° |
| 2026-05-03 21:37 | 32.68940 | -96.71000 | 13051 ft | 283 kts | 196° |
| 2026-05-03 21:37 | 32.67089 | -96.71829 | 14043 ft | 288 kts | 205° |
| 2026-05-03 21:37 | 32.65248 | -96.72820 | 14909 ft | 293 kts | 208° |
| 2026-05-03 21:38 | 32.63462 | -96.74003 | 15818 ft | 294 kts | 220° |
| 2026-05-03 21:38 | 32.62169 | -96.75848 | 16681 ft | 294 kts | 242° |
| 2026-05-03 21:38 | 32.61538 | -96.78144 | 17533 ft | 296 kts | 266° |
| 2026-05-03 21:38 | 32.61488 | -96.80589 | 18456 ft | 298 kts | 270° |
| 2026-05-03 21:39 | 32.61488 | -96.83061 | 19260 ft | 301 kts | 273° |
| 2026-05-03 21:39 | 32.61542 | -96.85545 | 20113 ft | 302 kts | 272° |
| 2026-05-03 21:39 | 32.61551 | -96.88037 | 21008 ft | 303 kts | 272° |
| 2026-05-03 21:39 | 32.61708 | -96.90518 | 21880 ft | 301 kts | 288° |
| 2026-05-03 21:40 | 32.62700 | -96.92698 | 22749 ft | 302 kts | 302° |
| 2026-05-03 21:40 | 32.63763 | -96.94855 | 23622 ft | 303 kts | 299° |
| 2026-05-03 21:40 | 32.65457 | -96.98610 | 24902 ft | 304 kts | 298° |
| 2026-05-03 21:40 | 32.67460 | -97.03044 | 26426 ft | 305 kts | 298° |
| 2026-05-03 21:41 | 32.69485 | -97.07500 | 27840 ft | 308 kts | 298° |
| 2026-05-03 21:41 | 32.71520 | -97.12032 | 29186 ft | 311 kts | 298° |
| 2026-05-03 21:41 | 32.73534 | -97.16460 | 30915 ft | 299 kts | 298° |
| 2026-05-03 21:41 | 32.75446 | -97.20705 | 32605 ft | 283 kts | 298° |
| 2026-05-03 21:42 | 32.77255 | -97.24723 | 34248 ft | 268 kts | 297° |
| 2026-05-03 21:42 | 32.78963 | -97.28521 | 35410 ft | 262 kts | 298° |
| 2026-05-03 21:42 | 32.80667 | -97.32311 | 36405 ft | 259 kts | 298° |
| 2026-05-03 21:42 | 32.82354 | -97.36063 | 37401 ft | 255 kts | 297° |
| 2026-05-03 21:43 | 32.84014 | -97.39769 | 38374 ft | 253 kts | 297° |
| 2026-05-03 21:43 | 32.85659 | -97.43441 | 39225 ft | 251 kts | 297° |
| 2026-05-03 21:43 | 32.87308 | -97.47122 | 39885 ft | 253 kts | 297° |
| 2026-05-03 21:43 | 32.88970 | -97.50842 | 40592 ft | 256 kts | 297° |
| 2026-05-03 21:44 | 32.90647 | -97.54601 | 41262 ft | 258 kts | 296° |
| 2026-05-03 21:44 | 32.92341 | -97.58394 | 41930 ft | 260 kts | 296° |
| 2026-05-03 21:44 | 32.94045 | -97.62215 | 42616 ft | 262 kts | 296° |
| 2026-05-03 21:44 | 32.95761 | -97.66074 | 43111 ft | 268 kts | 296° |
| 2026-05-03 21:45 | 32.97564 | -97.70123 | 43180 ft | 285 kts | 296° |
| 2026-05-03 21:45 | 32.99408 | -97.74448 | 43187 ft | 300 kts | 292° |
| 2026-05-03 21:45 | 33.01163 | -97.79099 | 43178 ft | 314 kts | 294° |
| 2026-05-03 21:45 | 33.02966 | -97.83901 | 43167 ft | 321 kts | 294° |
| 2026-05-03 21:46 | 33.06681 | -97.93822 | 43112 ft | 333 kts | 294° |
| 2026-05-03 21:46 | 33.10490 | -98.04032 | 43099 ft | 340 kts | 294° |
| 2026-05-03 21:47 | 33.14355 | -98.14412 | 43090 ft | 345 kts | 294° |
| 2026-05-03 21:47 | 33.19438 | -98.24157 | 43079 ft | 351 kts | 308° |
| 2026-05-03 21:48 | 33.25493 | -98.30731 | 43070 ft | 357 kts | 315° |